Smoky Hollow, Minnesota
Current Conditions -  °F | °C
As of 10:56 AM on Wednesday 22 Oct 2014 (Local Time) from KXVG Reporting Station
Broken Clouds Broken Clouds  
Wind Chill: 52°   Ceiling: 4200
Heat Index: 52°   Visibility: 10mi
Dew Point: 39°   Wind: 15mph
Humidity: 62%   Direction: 140°SE
Pressure: 30.03"   Gusts: 21mph
Location:  47.0973°N, 93.9173°W
Report Text: KXVG 221556Z AUTO 14013G18KT 10SM BKN042 11/04 A3003 RMK AO2
Loading
Personal Weather Stations






























Interactive Weather Map
Tropical Storm Tracking
New forecast layout! Learn more

10-Day Weather Forecast

Advertisements
Track Severe Weather on mobile